sensor_id;sensor_type;location;lat;lon;timestamp;P1;durP1;ratioP1;P2;durP2;ratioP2
8584;SDS011;7180;52.742;11.420;2022-12-18T00:01:20;29.43;;;19.50;;
8584;SDS011;7180;52.742;11.420;2022-12-18T00:03:46;27.03;;;18.27;;
8584;SDS011;7180;52.742;11.420;2022-12-18T00:06:11;28.10;;;18.60;;
8584;SDS011;7180;52.742;11.420;2022-12-18T00:08:36;29.83;;;19.00;;
8584;SDS011;7180;52.742;11.420;2022-12-18T00:11:05;27.57;;;18.70;;
8584;SDS011;7180;52.742;11.420;2022-12-18T00:13:31;28.50;;;18.83;;
8584;SDS011;7180;52.742;11.420;2022-12-18T00:16:00;31.60;;;19.60;;
8584;SDS011;7180;52.742;11.420;2022-12-18T00:18:26;29.83;;;18.60;;
8584;SDS011;7180;52.742;11.420;2022-12-18T00:20:51;29.40;;;18.83;;
8584;SDS011;7180;52.742;11.420;2022-12-18T00:23:17;26.07;;;17.60;;
8584;SDS011;7180;52.742;11.420;2022-12-18T00:25:42;27.40;;;18.23;;
8584;SDS011;7180;52.742;11.420;2022-12-18T00:28:07;29.40;;;18.47;;
8584;SDS011;7180;52.742;11.420;2022-12-18T00:30:32;31.17;;;19.37;;
8584;SDS011;7180;52.742;11.420;2022-12-18T00:32:57;26.37;;;17.70;;
8584;SDS011;7180;52.742;11.420;2022-12-18T00:35:23;27.47;;;18.40;;
8584;SDS011;7180;52.742;11.420;2022-12-18T00:37:48;29.03;;;20.03;;
8584;SDS011;7180;52.742;11.420;2022-12-18T00:40:13;31.23;;;18.50;;
8584;SDS011;7180;52.742;11.420;2022-12-18T00:42:38;27.80;;;17.83;;
8584;SDS011;7180;52.742;11.420;2022-12-18T00:45:23;30.33;;;18.90;;
8584;SDS011;7180;52.742;11.420;2022-12-18T00:47:48;28.17;;;18.43;;
8584;SDS011;7180;52.742;11.420;2022-12-18T00:50:13;26.27;;;18.30;;
8584;SDS011;7180;52.742;11.420;2022-12-18T00:52:39;29.77;;;18.50;;
8584;SDS011;7180;52.742;11.420;2022-12-18T00:55:04;30.13;;;18.57;;
8584;SDS011;7180;52.742;11.420;2022-12-18T00:57:29;28.27;;;18.00;;
8584;SDS011;7180;52.742;11.420;2022-12-18T00:59:54;25.67;;;17.53;;
8584;SDS011;7180;52.742;11.420;2022-12-18T01:02:19;29.17;;;18.97;;
8584;SDS011;7180;52.742;11.420;2022-12-18T01:04:45;27.07;;;17.83;;
8584;SDS011;7180;52.742;11.420;2022-12-18T01:07:10;29.40;;;17.60;;
8584;SDS011;7180;52.742;11.420;2022-12-18T01:09:35;31.43;;;18.27;;
8584;SDS011;7180;52.742;11.420;2022-12-18T01:12:00;30.17;;;18.50;;
8584;SDS011;7180;52.742;11.420;2022-12-18T01:14:25;28.30;;;18.17;;
8584;SDS011;7180;52.742;11.420;2022-12-18T01:16:51;28.00;;;17.70;;
8584;SDS011;7180;52.742;11.420;2022-12-18T01:19:16;28.77;;;17.77;;
8584;SDS011;7180;52.742;11.420;2022-12-18T01:21:41;26.13;;;17.23;;
8584;SDS011;7180;52.742;11.420;2022-12-18T01:24:06;26.67;;;17.60;;
8584;SDS011;7180;52.742;11.420;2022-12-18T01:26:32;29.60;;;18.53;;
8584;SDS011;7180;52.742;11.420;2022-12-18T01:28:57;31.63;;;18.03;;
8584;SDS011;7180;52.742;11.420;2022-12-18T01:31:24;28.57;;;18.07;;
8584;SDS011;7180;52.742;11.420;2022-12-18T01:33:49;30.47;;;17.80;;
8584;SDS011;7180;52.742;11.420;2022-12-18T01:36:19;27.17;;;16.97;;
8584;SDS011;7180;52.742;11.420;2022-12-18T01:38:45;34.90;;;18.17;;
8584;SDS011;7180;52.742;11.420;2022-12-18T01:41:11;30.73;;;18.53;;
8584;SDS011;7180;52.742;11.420;2022-12-18T01:43:47;32.00;;;19.00;;
8584;SDS011;7180;52.742;11.420;2022-12-18T01:46:12;32.00;;;18.67;;
8584;SDS011;7180;52.742;11.420;2022-12-18T01:48:37;29.53;;;18.67;;
8584;SDS011;7180;52.742;11.420;2022-12-18T01:51:04;32.47;;;18.57;;
8584;SDS011;7180;52.742;11.420;2022-12-18T01:53:29;32.33;;;19.33;;
8584;SDS011;7180;52.742;11.420;2022-12-18T01:55:55;31.27;;;18.53;;
8584;SDS011;7180;52.742;11.420;2022-12-18T01:58:27;31.67;;;18.17;;
8584;SDS011;7180;52.742;11.420;2022-12-18T02:00:55;29.40;;;18.17;;
8584;SDS011;7180;52.742;11.420;2022-12-18T02:03:20;31.20;;;17.40;;
8584;SDS011;7180;52.742;11.420;2022-12-18T02:05:47;30.27;;;18.07;;
8584;SDS011;7180;52.742;11.420;2022-12-18T02:08:21;33.20;;;19.03;;
8584;SDS011;7180;52.742;11.420;2022-12-18T02:13:53;29.57;;;17.83;;
8584;SDS011;7180;52.742;11.420;2022-12-18T02:16:34;30.97;;;19.13;;
8584;SDS011;7180;52.742;11.420;2022-12-18T02:19:06;30.23;;;19.40;;
8584;SDS011;7180;52.742;11.420;2022-12-18T02:21:41;28.50;;;18.20;;
8584;SDS011;7180;52.742;11.420;2022-12-18T02:26:43;33.78;;;20.20;;
8584;SDS011;7180;52.742;11.420;2022-12-18T02:29:33;36.73;;;19.77;;
8584;SDS011;7180;52.742;11.420;2022-12-18T02:31:57;35.10;;;19.90;;
8584;SDS011;7180;52.742;11.420;2022-12-18T02:34:24;33.87;;;20.23;;
8584;SDS011;7180;52.742;11.420;2022-12-18T02:36:51;33.37;;;20.13;;
8584;SDS011;7180;52.742;11.420;2022-12-18T02:39:18;27.40;;;18.70;;
8584;SDS011;7180;52.742;11.420;2022-12-18T02:41:45;33.60;;;19.77;;
8584;SDS011;7180;52.742;11.420;2022-12-18T02:44:12;31.60;;;19.83;;
8584;SDS011;7180;52.742;11.420;2022-12-18T02:46:42;32.10;;;19.17;;
8584;SDS011;7180;52.742;11.420;2022-12-18T02:51:53;31.90;;;18.87;;
8584;SDS011;7180;52.742;11.420;2022-12-18T02:54:22;29.07;;;17.83;;
8584;SDS011;7180;52.742;11.420;2022-12-18T02:56:50;30.30;;;18.83;;
8584;SDS011;7180;52.742;11.420;2022-12-18T02:59:17;30.03;;;17.87;;
8584;SDS011;7180;52.742;11.420;2022-12-18T03:04:14;30.00;;;19.27;;
8584;SDS011;7180;52.742;11.420;2022-12-18T03:06:42;27.47;;;17.90;;
8584;SDS011;7180;52.742;11.420;2022-12-18T03:09:09;33.37;;;20.60;;
8584;SDS011;7180;52.742;11.420;2022-12-18T03:11:36;31.87;;;19.70;;
8584;SDS011;7180;52.742;11.420;2022-12-18T03:14:26;30.60;;;18.37;;
8584;SDS011;7180;52.742;11.420;2022-12-18T03:16:52;31.10;;;19.67;;
8584;SDS011;7180;52.742;11.420;2022-12-18T03:19:19;33.13;;;19.80;;
8584;SDS011;7180;52.742;11.420;2022-12-18T03:21:47;30.30;;;18.70;;
8584;SDS011;7180;52.742;11.420;2022-12-18T03:24:13;32.07;;;18.10;;
8584;SDS011;7180;52.742;11.420;2022-12-18T03:26:40;30.67;;;18.70;;
8584;SDS011;7180;52.742;11.420;2022-12-18T03:29:12;31.57;;;18.53;;
8584;SDS011;7180;52.742;11.420;2022-12-18T03:31:39;32.93;;;18.87;;
8584;SDS011;7180;52.742;11.420;2022-12-18T03:34:08;33.37;;;19.37;;
8584;SDS011;7180;52.742;11.420;2022-12-18T03:36:34;32.20;;;18.80;;
8584;SDS011;7180;52.742;11.420;2022-12-18T03:38:59;30.60;;;18.90;;
8584;SDS011;7180;52.742;11.420;2022-12-18T03:41:37;33.27;;;20.37;;
8584;SDS011;7180;52.742;11.420;2022-12-18T03:44:48;31.97;;;19.17;;
8584;SDS011;7180;52.742;11.420;2022-12-18T03:52:11;31.23;;;19.77;;
8584;SDS011;7180;52.742;11.420;2022-12-18T03:54:37;31.07;;;19.50;;
8584;SDS011;7180;52.742;11.420;2022-12-18T03:57:05;33.83;;;19.00;;
8584;SDS011;7180;52.742;11.420;2022-12-18T03:59:31;34.60;;;18.47;;
8584;SDS011;7180;52.742;11.420;2022-12-18T04:01:57;32.70;;;19.33;;
8584;SDS011;7180;52.742;11.420;2022-12-18T04:04:23;30.30;;;19.17;;
8584;SDS011;7180;52.742;11.420;2022-12-18T04:06:49;30.00;;;18.47;;
8584;SDS011;7180;52.742;11.420;2022-12-18T04:09:15;30.70;;;18.63;;
8584;SDS011;7180;52.742;11.420;2022-12-18T04:11:41;31.93;;;18.93;;
8584;SDS011;7180;52.742;11.420;2022-12-18T04:14:08;33.83;;;19.13;;
8584;SDS011;7180;52.742;11.420;2022-12-18T04:16:33;30.57;;;19.03;;
8584;SDS011;7180;52.742;11.420;2022-12-18T04:18:59;31.40;;;19.23;;
8584;SDS011;7180;52.742;11.420;2022-12-18T04:21:24;33.13;;;19.57;;
8584;SDS011;7180;52.742;11.420;2022-12-18T04:23:49;33.03;;;18.37;;
8584;SDS011;7180;52.742;11.420;2022-12-18T04:26:14;33.23;;;18.50;;
8584;SDS011;7180;52.742;11.420;2022-12-18T04:28:39;30.70;;;18.50;;
8584;SDS011;7180;52.742;11.420;2022-12-18T04:31:04;30.60;;;18.33;;
8584;SDS011;7180;52.742;11.420;2022-12-18T04:33:30;32.93;;;18.87;;
8584;SDS011;7180;52.742;11.420;2022-12-18T04:35:55;31.97;;;18.90;;
8584;SDS011;7180;52.742;11.420;2022-12-18T04:38:20;28.87;;;19.17;;
8584;SDS011;7180;52.742;11.420;2022-12-18T04:40:45;30.33;;;18.77;;
8584;SDS011;7180;52.742;11.420;2022-12-18T04:43:11;29.47;;;19.20;;
8584;SDS011;7180;52.742;11.420;2022-12-18T04:45:36;28.87;;;19.27;;
8584;SDS011;7180;52.742;11.420;2022-12-18T04:48:01;33.00;;;18.47;;
8584;SDS011;7180;52.742;11.420;2022-12-18T04:50:27;32.27;;;19.50;;
8584;SDS011;7180;52.742;11.420;2022-12-18T04:52:53;31.30;;;18.90;;
8584;SDS011;7180;52.742;11.420;2022-12-18T04:55:18;31.03;;;19.87;;
8584;SDS011;7180;52.742;11.420;2022-12-18T04:57:43;29.60;;;19.33;;
8584;SDS011;7180;52.742;11.420;2022-12-18T05:00:09;28.33;;;18.73;;
8584;SDS011;7180;52.742;11.420;2022-12-18T05:02:34;29.83;;;18.23;;
8584;SDS011;7180;52.742;11.420;2022-12-18T05:04:59;26.43;;;17.13;;
8584;SDS011;7180;52.742;11.420;2022-12-18T05:07:24;31.57;;;18.10;;
8584;SDS011;7180;52.742;11.420;2022-12-18T05:09:49;29.00;;;18.17;;
8584;SDS011;7180;52.742;11.420;2022-12-18T05:12:15;27.50;;;17.93;;
8584;SDS011;7180;52.742;11.420;2022-12-18T05:14:40;29.50;;;20.13;;
8584;SDS011;7180;52.742;11.420;2022-12-18T05:17:05;27.83;;;18.67;;
8584;SDS011;7180;52.742;11.420;2022-12-18T05:19:30;29.30;;;18.17;;
8584;SDS011;7180;52.742;11.420;2022-12-18T05:21:56;29.83;;;18.23;;
8584;SDS011;7180;52.742;11.420;2022-12-18T05:24:21;28.70;;;18.10;;
8584;SDS011;7180;52.742;11.420;2022-12-18T05:26:46;31.37;;;17.83;;
8584;SDS011;7180;52.742;11.420;2022-12-18T05:29:11;29.50;;;17.93;;
8584;SDS011;7180;52.742;11.420;2022-12-18T05:31:37;31.07;;;19.10;;
8584;SDS011;7180;52.742;11.420;2022-12-18T05:34:03;31.63;;;18.97;;
8584;SDS011;7180;52.742;11.420;2022-12-18T05:36:28;32.63;;;18.80;;
8584;SDS011;7180;52.742;11.420;2022-12-18T05:38:53;29.03;;;18.13;;
8584;SDS011;7180;52.742;11.420;2022-12-18T05:41:18;31.87;;;18.20;;
8584;SDS011;7180;52.742;11.420;2022-12-18T05:43:43;32.27;;;19.20;;
8584;SDS011;7180;52.742;11.420;2022-12-18T05:46:13;34.80;;;19.43;;
8584;SDS011;7180;52.742;11.420;2022-12-18T05:48:38;37.90;;;19.80;;
8584;SDS011;7180;52.742;11.420;2022-12-18T05:51:07;33.17;;;18.87;;
8584;SDS011;7180;52.742;11.420;2022-12-18T05:53:33;32.53;;;19.30;;
8584;SDS011;7180;52.742;11.420;2022-12-18T05:56:00;34.33;;;19.53;;
8584;SDS011;7180;52.742;11.420;2022-12-18T05:58:25;40.40;;;20.30;;
8584;SDS011;7180;52.742;11.420;2022-12-18T06:00:50;30.40;;;19.60;;
8584;SDS011;7180;52.742;11.420;2022-12-18T06:03:15;31.03;;;19.07;;
8584;SDS011;7180;52.742;11.420;2022-12-18T06:05:42;30.20;;;19.33;;
8584;SDS011;7180;52.742;11.420;2022-12-18T06:08:07;35.77;;;20.10;;
8584;SDS011;7180;52.742;11.420;2022-12-18T06:10:33;40.50;;;21.60;;
8584;SDS011;7180;52.742;11.420;2022-12-18T06:12:58;34.10;;;21.17;;
8584;SDS011;7180;52.742;11.420;2022-12-18T06:15:23;47.60;;;22.93;;
8584;SDS011;7180;52.742;11.420;2022-12-18T06:17:49;46.73;;;24.73;;
8584;SDS011;7180;52.742;11.420;2022-12-18T06:20:14;37.00;;;21.13;;
8584;SDS011;7180;52.742;11.420;2022-12-18T06:22:39;37.60;;;20.97;;
8584;SDS011;7180;52.742;11.420;2022-12-18T06:25:05;36.33;;;21.00;;
8584;SDS011;7180;52.742;11.420;2022-12-18T06:27:31;37.33;;;21.30;;
8584;SDS011;7180;52.742;11.420;2022-12-18T06:29:56;39.03;;;22.50;;
8584;SDS011;7180;52.742;11.420;2022-12-18T06:32:21;40.47;;;23.33;;
8584;SDS011;7180;52.742;11.420;2022-12-18T06:34:47;43.27;;;22.60;;
8584;SDS011;7180;52.742;11.420;2022-12-18T06:37:12;39.27;;;20.77;;
8584;SDS011;7180;52.742;11.420;2022-12-18T06:39:37;35.80;;;20.67;;
8584;SDS011;7180;52.742;11.420;2022-12-18T06:42:03;38.50;;;21.27;;
8584;SDS011;7180;52.742;11.420;2022-12-18T06:44:28;37.57;;;20.83;;
8584;SDS011;7180;52.742;11.420;2022-12-18T06:46:53;41.87;;;22.67;;
8584;SDS011;7180;52.742;11.420;2022-12-18T06:49:18;42.57;;;22.67;;
8584;SDS011;7180;52.742;11.420;2022-12-18T06:51:43;40.00;;;22.90;;
8584;SDS011;7180;52.742;11.420;2022-12-18T06:54:08;40.30;;;22.53;;
8584;SDS011;7180;52.742;11.420;2022-12-18T06:56:34;42.30;;;22.93;;
8584;SDS011;7180;52.742;11.420;2022-12-18T06:58:59;41.23;;;24.50;;
8584;SDS011;7180;52.742;11.420;2022-12-18T07:01:24;41.43;;;24.27;;
8584;SDS011;7180;52.742;11.420;2022-12-18T07:03:54;50.63;;;27.73;;
8584;SDS011;7180;52.742;11.420;2022-12-18T07:06:20;56.37;;;26.73;;
8584;SDS011;7180;52.742;11.420;2022-12-18T07:08:45;46.37;;;26.33;;
8584;SDS011;7180;52.742;11.420;2022-12-18T07:11:11;45.27;;;24.73;;
8584;SDS011;7180;52.742;11.420;2022-12-18T07:13:36;48.67;;;25.63;;
8584;SDS011;7180;52.742;11.420;2022-12-18T07:18:30;46.57;;;25.97;;
8584;SDS011;7180;52.742;11.420;2022-12-18T07:20:55;41.50;;;25.50;;
8584;SDS011;7180;52.742;11.420;2022-12-18T07:23:20;46.30;;;24.63;;
8584;SDS011;7180;52.742;11.420;2022-12-18T07:25:45;47.93;;;25.67;;
8584;SDS011;7180;52.742;11.420;2022-12-18T07:28:11;46.73;;;24.30;;
8584;SDS011;7180;52.742;11.420;2022-12-18T07:30:37;45.93;;;25.53;;
8584;SDS011;7180;52.742;11.420;2022-12-18T07:33:03;49.17;;;25.67;;
8584;SDS011;7180;52.742;11.420;2022-12-18T07:35:28;51.87;;;25.67;;
8584;SDS011;7180;52.742;11.420;2022-12-18T07:37:53;44.73;;;23.77;;
8584;SDS011;7180;52.742;11.420;2022-12-18T07:40:18;43.47;;;23.13;;
8584;SDS011;7180;52.742;11.420;2022-12-18T07:42:43;43.47;;;23.53;;
8584;SDS011;7180;52.742;11.420;2022-12-18T07:45:09;45.00;;;24.10;;
8584;SDS011;7180;52.742;11.420;2022-12-18T07:47:34;49.27;;;24.30;;
8584;SDS011;7180;52.742;11.420;2022-12-18T07:50:00;40.73;;;23.27;;
8584;SDS011;7180;52.742;11.420;2022-12-18T07:52:25;44.33;;;23.60;;
8584;SDS011;7180;52.742;11.420;2022-12-18T07:54:51;39.13;;;22.83;;
8584;SDS011;7180;52.742;11.420;2022-12-18T07:57:16;43.63;;;23.77;;
8584;SDS011;7180;52.742;11.420;2022-12-18T07:59:42;45.27;;;24.30;;
8584;SDS011;7180;52.742;11.420;2022-12-18T08:02:07;43.63;;;23.87;;
8584;SDS011;7180;52.742;11.420;2022-12-18T08:04:32;44.30;;;23.83;;
8584;SDS011;7180;52.742;11.420;2022-12-18T08:06:57;43.33;;;24.47;;
8584;SDS011;7180;52.742;11.420;2022-12-18T08:09:23;46.27;;;24.53;;
8584;SDS011;7180;52.742;11.420;2022-12-18T08:11:48;40.40;;;23.50;;
8584;SDS011;7180;52.742;11.420;2022-12-18T08:14:13;46.13;;;24.63;;
8584;SDS011;7180;52.742;11.420;2022-12-18T08:16:39;45.63;;;24.63;;
8584;SDS011;7180;52.742;11.420;2022-12-18T08:19:04;49.03;;;24.17;;
8584;SDS011;7180;52.742;11.420;2022-12-18T08:21:30;59.80;;;29.80;;
8584;SDS011;7180;52.742;11.420;2022-12-18T08:23:56;58.20;;;28.07;;
8584;SDS011;7180;52.742;11.420;2022-12-18T08:26:22;57.53;;;28.47;;
8584;SDS011;7180;52.742;11.420;2022-12-18T08:28:48;54.07;;;29.13;;
8584;SDS011;7180;52.742;11.420;2022-12-18T08:31:13;57.33;;;29.57;;
8584;SDS011;7180;52.742;11.420;2022-12-18T08:33:39;66.03;;;34.00;;
8584;SDS011;7180;52.742;11.420;2022-12-18T08:36:04;47.60;;;25.83;;
8584;SDS011;7180;52.742;11.420;2022-12-18T08:38:29;48.17;;;26.10;;
8584;SDS011;7180;52.742;11.420;2022-12-18T08:41:06;49.67;;;25.57;;
8584;SDS011;7180;52.742;11.420;2022-12-18T08:43:31;46.43;;;26.30;;
8584;SDS011;7180;52.742;11.420;2022-12-18T08:46:16;54.60;;;27.47;;
8584;SDS011;7180;52.742;11.420;2022-12-18T08:48:41;37.80;;;24.43;;
8584;SDS011;7180;52.742;11.420;2022-12-18T08:51:06;54.47;;;28.70;;
8584;SDS011;7180;52.742;11.420;2022-12-18T08:53:31;51.60;;;27.57;;
8584;SDS011;7180;52.742;11.420;2022-12-18T08:55:57;49.37;;;26.40;;
8584;SDS011;7180;52.742;11.420;2022-12-18T08:58:22;69.13;;;32.33;;
8584;SDS011;7180;52.742;11.420;2022-12-18T09:00:48;48.43;;;25.87;;
8584;SDS011;7180;52.742;11.420;2022-12-18T09:03:13;46.43;;;24.83;;
8584;SDS011;7180;52.742;11.420;2022-12-18T09:05:39;42.60;;;24.03;;
8584;SDS011;7180;52.742;11.420;2022-12-18T09:08:04;42.07;;;24.60;;
8584;SDS011;7180;52.742;11.420;2022-12-18T09:10:29;44.47;;;24.87;;
8584;SDS011;7180;52.742;11.420;2022-12-18T09:12:55;45.73;;;24.07;;
8584;SDS011;7180;52.742;11.420;2022-12-18T09:15:21;45.03;;;25.10;;
8584;SDS011;7180;52.742;11.420;2022-12-18T09:17:46;44.67;;;23.97;;
8584;SDS011;7180;52.742;11.420;2022-12-18T09:20:11;36.23;;;21.60;;
8584;SDS011;7180;52.742;11.420;2022-12-18T09:22:36;41.67;;;22.93;;
8584;SDS011;7180;52.742;11.420;2022-12-18T09:25:01;41.93;;;24.17;;
8584;SDS011;7180;52.742;11.420;2022-12-18T09:27:27;42.50;;;23.57;;
8584;SDS011;7180;52.742;11.420;2022-12-18T09:29:52;39.90;;;23.17;;
8584;SDS011;7180;52.742;11.420;2022-12-18T09:32:17;37.63;;;22.57;;
8584;SDS011;7180;52.742;11.420;2022-12-18T09:34:42;42.27;;;23.83;;
8584;SDS011;7180;52.742;11.420;2022-12-18T09:37:07;38.73;;;23.83;;
8584;SDS011;7180;52.742;11.420;2022-12-18T09:39:33;36.43;;;22.47;;
8584;SDS011;7180;52.742;11.420;2022-12-18T09:41:58;43.37;;;23.73;;
8584;SDS011;7180;52.742;11.420;2022-12-18T09:44:30;47.50;;;24.47;;
8584;SDS011;7180;52.742;11.420;2022-12-18T09:49:26;38.97;;;23.23;;
8584;SDS011;7180;52.742;11.420;2022-12-18T09:54:22;44.37;;;24.67;;
8584;SDS011;7180;52.742;11.420;2022-12-18T09:56:48;40.83;;;24.60;;
8584;SDS011;7180;52.742;11.420;2022-12-18T09:59:22;43.67;;;25.80;;
8584;SDS011;7180;52.742;11.420;2022-12-18T10:01:48;43.57;;;24.17;;
8584;SDS011;7180;52.742;11.420;2022-12-18T10:04:14;46.10;;;24.37;;
8584;SDS011;7180;52.742;11.420;2022-12-18T10:06:42;43.27;;;24.10;;
8584;SDS011;7180;52.742;11.420;2022-12-18T10:11:59;46.57;;;24.47;;
8584;SDS011;7180;52.742;11.420;2022-12-18T10:14:49;42.13;;;25.10;;
8584;SDS011;7180;52.742;11.420;2022-12-18T10:19:45;47.57;;;24.33;;
8584;SDS011;7180;52.742;11.420;2022-12-18T10:24:44;45.70;;;26.33;;
8584;SDS011;7180;52.742;11.420;2022-12-18T10:27:16;45.77;;;27.27;;
8584;SDS011;7180;52.742;11.420;2022-12-18T10:29:42;38.20;;;25.13;;
8584;SDS011;7180;52.742;11.420;2022-12-18T10:32:13;41.40;;;24.87;;
8584;SDS011;7180;52.742;11.420;2022-12-18T10:34:39;45.57;;;26.80;;
8584;SDS011;7180;52.742;11.420;2022-12-18T10:37:06;44.00;;;26.07;;
8584;SDS011;7180;52.742;11.420;2022-12-18T10:39:31;46.47;;;26.53;;
8584;SDS011;7180;52.742;11.420;2022-12-18T10:42:09;43.10;;;27.20;;
8584;SDS011;7180;52.742;11.420;2022-12-18T10:44:34;44.20;;;26.10;;
8584;SDS011;7180;52.742;11.420;2022-12-18T10:47:03;43.43;;;27.33;;
8584;SDS011;7180;52.742;11.420;2022-12-18T10:49:30;39.13;;;26.23;;
8584;SDS011;7180;52.742;11.420;2022-12-18T10:54:45;42.87;;;25.90;;
8584;SDS011;7180;52.742;11.420;2022-12-18T10:57:15;46.50;;;27.50;;
8584;SDS011;7180;52.742;11.420;2022-12-18T10:59:51;41.77;;;26.50;;
8584;SDS011;7180;52.742;11.420;2022-12-18T11:02:35;45.67;;;27.47;;
8584;SDS011;7180;52.742;11.420;2022-12-18T11:05:02;42.17;;;26.70;;
8584;SDS011;7180;52.742;11.420;2022-12-18T11:07:45;45.07;;;28.57;;
8584;SDS011;7180;52.742;11.420;2022-12-18T11:10:15;49.97;;;28.73;;
8584;SDS011;7180;52.742;11.420;2022-12-18T11:12:41;47.17;;;29.03;;
8584;SDS011;7180;52.742;11.420;2022-12-18T11:15:13;46.07;;;28.17;;
8584;SDS011;7180;52.742;11.420;2022-12-18T11:17:39;43.33;;;27.10;;
8584;SDS011;7180;52.742;11.420;2022-12-18T11:20:05;49.73;;;30.03;;
8584;SDS011;7180;52.742;11.420;2022-12-18T11:22:35;43.17;;;28.07;;
8584;SDS011;7180;52.742;11.420;2022-12-18T11:25:16;43.83;;;27.97;;
8584;SDS011;7180;52.742;11.420;2022-12-18T11:27:47;44.13;;;27.63;;
8584;SDS011;7180;52.742;11.420;2022-12-18T11:32:45;41.27;;;26.03;;
8584;SDS011;7180;52.742;11.420;2022-12-18T11:35:14;41.30;;;26.73;;
8584;SDS011;7180;52.742;11.420;2022-12-18T11:37:41;43.57;;;27.33;;
8584;SDS011;7180;52.742;11.420;2022-12-18T11:40:13;41.33;;;25.13;;
8584;SDS011;7180;52.742;11.420;2022-12-18T11:47:39;45.03;;;27.63;;
8584;SDS011;7180;52.742;11.420;2022-12-18T11:50:12;46.97;;;27.80;;
8584;SDS011;7180;52.742;11.420;2022-12-18T11:52:39;45.57;;;27.13;;
8584;SDS011;7180;52.742;11.420;2022-12-18T11:55:10;46.30;;;26.73;;
8584;SDS011;7180;52.742;11.420;2022-12-18T11:57:42;42.63;;;27.03;;
8584;SDS011;7180;52.742;11.420;2022-12-18T12:00:15;40.73;;;25.97;;
8584;SDS011;7180;52.742;11.420;2022-12-18T12:19:38;38.37;;;25.57;;
8584;SDS011;7180;52.742;11.420;2022-12-18T12:21:42;40.33;;;25.47;;
8584;SDS011;7180;52.742;11.420;2022-12-18T12:26:46;43.73;;;25.77;;
8584;SDS011;7180;52.742;11.420;2022-12-18T12:29:19;40.87;;;25.23;;
8584;SDS011;7180;52.742;11.420;2022-12-18T12:32:24;33.63;;;24.43;;
8584;SDS011;7180;52.742;11.420;2022-12-18T12:34:44;36.53;;;22.70;;
8584;SDS011;7180;52.742;11.420;2022-12-18T12:39:40;35.67;;;22.70;;
8584;SDS011;7180;52.742;11.420;2022-12-18T12:42:08;37.77;;;23.73;;
8584;SDS011;7180;52.742;11.420;2022-12-18T12:44:55;46.03;;;27.80;;
8584;SDS011;7180;52.742;11.420;2022-12-18T12:47:38;41.17;;;25.97;;
8584;SDS011;7180;52.742;11.420;2022-12-18T12:50:05;33.43;;;22.73;;
8584;SDS011;7180;52.742;11.420;2022-12-18T12:52:36;39.90;;;24.57;;
8584;SDS011;7180;52.742;11.420;2022-12-18T12:55:03;34.60;;;23.53;;
8584;SDS011;7180;52.742;11.420;2022-12-18T12:57:36;37.73;;;24.50;;
8584;SDS011;7180;52.742;11.420;2022-12-18T13:00:05;36.87;;;24.73;;
8584;SDS011;7180;52.742;11.420;2022-12-18T13:02:39;38.87;;;25.00;;
8584;SDS011;7180;52.742;11.420;2022-12-18T13:07:52;37.27;;;23.87;;
8584;SDS011;7180;52.742;11.420;2022-12-18T13:12:57;42.67;;;25.67;;
8584;SDS011;7180;52.742;11.420;2022-12-18T13:17:48;40.07;;;24.90;;
8584;SDS011;7180;52.742;11.420;2022-12-18T13:20:14;36.47;;;24.27;;
8584;SDS011;7180;52.742;11.420;2022-12-18T13:22:46;41.33;;;24.70;;
8584;SDS011;7180;52.742;11.420;2022-12-18T13:28:11;35.47;;;23.77;;
8584;SDS011;7180;52.742;11.420;2022-12-18T13:38:20;33.53;;;22.60;;
8584;SDS011;7180;52.742;11.420;2022-12-18T13:43:23;35.10;;;24.10;;
8584;SDS011;7180;52.742;11.420;2022-12-18T13:48:21;33.50;;;23.17;;
8584;SDS011;7180;52.742;11.420;2022-12-18T13:50:57;35.87;;;24.27;;
8584;SDS011;7180;52.742;11.420;2022-12-18T13:53:25;37.20;;;23.20;;
8584;SDS011;7180;52.742;11.420;2022-12-18T13:55:52;33.97;;;23.40;;
8584;SDS011;7180;52.742;11.420;2022-12-18T13:58:18;31.97;;;23.60;;
8584;SDS011;7180;52.742;11.420;2022-12-18T14:00:44;34.90;;;23.47;;
8584;SDS011;7180;52.742;11.420;2022-12-18T14:03:20;33.83;;;23.30;;
8584;SDS011;7180;52.742;11.420;2022-12-18T14:05:45;31.47;;;22.47;;
8584;SDS011;7180;52.742;11.420;2022-12-18T14:08:12;35.40;;;23.10;;
8584;SDS011;7180;52.742;11.420;2022-12-18T14:10:42;33.53;;;24.43;;
8584;SDS011;7180;52.742;11.420;2022-12-18T14:13:09;31.50;;;23.50;;
8584;SDS011;7180;52.742;11.420;2022-12-18T14:15:35;31.13;;;23.90;;
8584;SDS011;7180;52.742;11.420;2022-12-18T14:20:39;32.60;;;23.07;;
8584;SDS011;7180;52.742;11.420;2022-12-18T14:23:24;31.23;;;23.13;;
8584;SDS011;7180;52.742;11.420;2022-12-18T14:25:49;32.00;;;22.63;;
8584;SDS011;7180;52.742;11.420;2022-12-18T14:28:14;30.50;;;23.87;;
8584;SDS011;7180;52.742;11.420;2022-12-18T14:30:41;29.97;;;22.13;;
8584;SDS011;7180;52.742;11.420;2022-12-18T14:33:23;32.87;;;23.27;;
8584;SDS011;7180;52.742;11.420;2022-12-18T14:40:42;35.17;;;22.83;;
8584;SDS011;7180;52.742;11.420;2022-12-18T14:43:09;35.27;;;23.80;;
8584;SDS011;7180;52.742;11.420;2022-12-18T14:45:35;29.63;;;22.50;;
8584;SDS011;7180;52.742;11.420;2022-12-18T14:48:05;31.90;;;22.57;;
8584;SDS011;7180;52.742;11.420;2022-12-18T14:50:30;32.27;;;23.50;;
8584;SDS011;7180;52.742;11.420;2022-12-18T14:52:55;34.97;;;22.60;;
8584;SDS011;7180;52.742;11.420;2022-12-18T14:55:21;34.13;;;24.60;;
8584;SDS011;7180;52.742;11.420;2022-12-18T14:57:49;34.03;;;23.17;;
8584;SDS011;7180;52.742;11.420;2022-12-18T15:00:15;35.13;;;24.43;;
8584;SDS011;7180;52.742;11.420;2022-12-18T15:02:41;33.97;;;23.30;;
8584;SDS011;7180;52.742;11.420;2022-12-18T15:07:42;33.93;;;23.20;;
8584;SDS011;7180;52.742;11.420;2022-12-18T15:10:15;35.53;;;23.57;;
8584;SDS011;7180;52.742;11.420;2022-12-18T15:18:01;36.53;;;24.03;;
8584;SDS011;7180;52.742;11.420;2022-12-18T15:20:27;31.47;;;21.67;;
8584;SDS011;7180;52.742;11.420;2022-12-18T15:22:55;31.00;;;22.67;;
8584;SDS011;7180;52.742;11.420;2022-12-18T15:27:48;33.30;;;22.50;;
8584;SDS011;7180;52.742;11.420;2022-12-18T15:30:18;30.43;;;22.53;;
8584;SDS011;7180;52.742;11.420;2022-12-18T15:32:44;30.30;;;23.30;;
8584;SDS011;7180;52.742;11.420;2022-12-18T15:35:20;33.53;;;23.70;;
8584;SDS011;7180;52.742;11.420;2022-12-18T15:37:46;32.13;;;22.77;;
8584;SDS011;7180;52.742;11.420;2022-12-18T15:40:12;35.70;;;23.33;;
8584;SDS011;7180;52.742;11.420;2022-12-18T15:42:37;31.43;;;21.93;;
8584;SDS011;7180;52.742;11.420;2022-12-18T15:45:21;32.57;;;22.57;;
8584;SDS011;7180;52.742;11.420;2022-12-18T15:47:46;33.90;;;22.67;;
8584;SDS011;7180;52.742;11.420;2022-12-18T15:50:11;35.10;;;22.33;;
8584;SDS011;7180;52.742;11.420;2022-12-18T15:52:41;34.33;;;23.03;;
8584;SDS011;7180;52.742;11.420;2022-12-18T15:55:11;34.73;;;23.10;;
8584;SDS011;7180;52.742;11.420;2022-12-18T15:57:55;34.33;;;22.60;;
8584;SDS011;7180;52.742;11.420;2022-12-18T16:00:20;31.17;;;22.27;;
8584;SDS011;7180;52.742;11.420;2022-12-18T16:02:45;35.53;;;22.57;;
8584;SDS011;7180;52.742;11.420;2022-12-18T16:05:13;36.87;;;23.17;;
8584;SDS011;7180;52.742;11.420;2022-12-18T16:07:39;34.93;;;23.60;;
8584;SDS011;7180;52.742;11.420;2022-12-18T16:10:04;34.27;;;22.33;;
8584;SDS011;7180;52.742;11.420;2022-12-18T16:12:29;34.77;;;23.97;;
8584;SDS011;7180;52.742;11.420;2022-12-18T16:14:55;39.47;;;24.53;;
8584;SDS011;7180;52.742;11.420;2022-12-18T16:17:20;38.17;;;24.77;;
8584;SDS011;7180;52.742;11.420;2022-12-18T16:19:45;35.13;;;23.90;;